Time;durP1;ratioP1;P1;durP2;ratioP2;P2;SDS_P1;SDS_P2;PMS_P1;PMS_P2;Temp;Humidity;BMP_temperature;BMP_pressure;BME280_temperature;BME280_humidity;BME280_pressure;Samples;Min_cycle;Max_cycle;Signal;HPM_P1;HPM_P2
2021/10/19 00:00:55;;;;;;;7.82;4.80;;;8.80;81.70;;;;;;5112545;28;20092;-73
2021/10/19 00:03:20;;;;;;;9.55;5.40;;;8.80;80.80;;;;;;5111374;28;20340;-73
2021/10/19 00:05:46;;;;;;;8.68;4.80;;;8.80;80.70;;;;;;5112636;28;20030;-73
2021/10/19 00:08:11;;;;;;;8.10;4.88;;;8.80;80.70;;;;;;5112654;28;20031;-73
2021/10/19 00:10:37;;;;;;;7.35;5.00;;;8.80;80.30;;;;;;5112445;28;20031;-73
2021/10/19 00:13:02;;;;;;;6.97;4.90;;;8.80;80.20;;;;;;5112539;28;20115;-74
2021/10/19 00:15:28;;;;;;;6.90;4.90;;;8.80;80.10;;;;;;5112570;28;20028;-73
2021/10/19 00:17:54;;;;;;;6.72;4.40;;;8.80;79.70;;;;;;5112602;28;20024;-74
2021/10/19 00:20:19;;;;;;;7.63;5.00;;;8.90;79.50;;;;;;5112526;28;20016;-74
2021/10/19 00:22:45;;;;;;;7.60;4.78;;;9.00;79.10;;;;;;5112346;28;20027;-73
2021/10/19 00:25:15;;;;;;;7.70;3.97;;;8.90;78.90;;;;;;5112440;28;20026;-73
2021/10/19 00:27:42;;;;;;;6.57;4.30;;;8.90;78.80;;;;;;5112367;28;20473;-74
2021/10/19 00:30:09;;;;;;;7.57;4.40;;;8.90;78.70;;;;;;5112350;28;20440;-74
2021/10/19 00:32:36;;;;;;;7.90;4.55;;;9.00;78.30;;;;;;5112358;28;20562;-74
2021/10/19 00:35:02;;;;;;;7.32;4.25;;;8.90;78.00;;;;;;5112335;28;20030;-73
2021/10/19 00:37:27;;;;;;;6.78;3.78;;;8.90;77.90;;;;;;5112156;28;20019;-74
2021/10/19 00:39:53;;;;;;;5.90;4.03;;;8.90;77.60;;;;;;5112456;28;20024;-74
2021/10/19 00:42:19;;;;;;;5.57;3.92;;;8.90;77.70;;;;;;5113858;28;20172;-74
2021/10/19 00:44:45;;;;;;;6.30;3.97;;;8.90;77.60;;;;;;5116143;28;20031;-73
2021/10/19 00:47:18;;;;;;;7.00;4.85;;;8.90;77.50;;;;;;5116191;28;20156;-74
2021/10/19 00:49:44;;;;;;;6.32;4.03;;;8.90;77.40;;;;;;5115982;28;20098;-74
2021/10/19 00:52:09;;;;;;;9.07;4.10;;;8.80;77.10;;;;;;5116050;28;20108;-74
2021/10/19 00:54:35;;;;;;;7.13;3.88;;;8.90;76.50;;;;;;5116074;28;20062;-73
2021/10/19 00:57:01;;;;;;;7.32;3.95;;;8.80;76.30;;;;;;5115908;28;20462;-73
2021/10/19 00:59:27;;;;;;;6.55;3.78;;;8.80;76.00;;;;;;5115848;28;20099;-73
2021/10/19 01:01:53;;;;;;;6.78;3.75;;;8.80;76.00;;;;;;5115695;28;20031;-75
2021/10/19 01:04:19;;;;;;;10.82;3.80;;;8.80;76.00;;;;;;5121109;28;20491;-75
2021/10/19 01:06:45;;;;;;;7.25;3.35;;;8.90;76.00;;;;;;5126131;28;20431;-74
2021/10/19 01:09:10;;;;;;;6.30;4.07;;;8.80;76.00;;;;;;5118795;28;20379;-74
2021/10/19 01:11:37;;;;;;;6.28;3.53;;;8.80;76.10;;;;;;5115542;28;20027;-74
2021/10/19 01:14:03;;;;;;;7.30;3.95;;;8.90;75.80;;;;;;5115479;28;20016;-73
2021/10/19 01:16:29;;;;;;;4.75;3.20;;;8.90;75.10;;;;;;5115574;28;20476;-74
2021/10/19 01:18:54;;;;;;;4.53;2.80;;;8.90;75.00;;;;;;5115201;28;20051;-74
2021/10/19 01:21:20;;;;;;;5.32;2.92;;;8.90;75.00;;;;;;5115231;28;20526;-74
2021/10/19 01:23:46;;;;;;;5.13;3.40;;;8.90;74.50;;;;;;5115358;28;20108;-74
2021/10/19 01:26:11;;;;;;;4.13;2.67;;;9.00;74.10;;;;;;5115186;28;20020;-75
2021/10/19 01:28:42;;;;;;;3.67;2.60;;;9.00;74.20;;;;;;5115314;28;20037;-74
2021/10/19 01:31:09;;;;;;;5.03;2.92;;;9.10;74.20;;;;;;5114981;28;20092;-73
2021/10/19 01:33:34;;;;;;;4.82;2.67;;;9.10;73.80;;;;;;5115320;28;20024;-73
2021/10/19 01:36:00;;;;;;;4.35;2.70;;;9.20;73.50;;;;;;5115146;28;20034;-71
2021/10/19 01:38:28;;;;;;;4.28;2.10;;;9.30;73.40;;;;;;5115094;28;20034;-73
2021/10/19 01:40:56;;;;;;;3.92;2.58;;;9.30;73.10;;;;;;5115089;28;20047;-74
2021/10/19 01:43:24;;;;;;;4.07;1.98;;;9.40;73.00;;;;;;5114906;28;20015;-72
2021/10/19 01:45:54;;;;;;;4.93;2.20;;;9.40;72.70;;;;;;5115303;28;20114;-73
2021/10/19 01:48:21;;;;;;;4.78;2.65;;;9.50;72.10;;;;;;5118458;28;20136;-72
2021/10/19 01:50:47;;;;;;;4.07;2.28;;;9.60;71.60;;;;;;5120756;28;20027;-72
2021/10/19 01:53:13;;;;;;;3.22;2.20;;;9.60;71.30;;;;;;5118162;28;20365;-72
2021/10/19 01:55:40;;;;;;;2.72;2.20;;;9.60;71.10;;;;;;5118532;28;20030;-72
2021/10/19 01:58:07;;;;;;;3.58;2.42;;;9.70;71.00;;;;;;5115592;28;20035;-73
2021/10/19 02:00:34;;;;;;;2.92;2.20;;;9.80;70.30;;;;;;5114863;28;20043;-72
2021/10/19 02:03:04;;;;;;;2.92;2.40;;;9.70;69.50;;;;;;5114561;28;20035;-72
2021/10/19 02:05:29;;;;;;;2.38;1.83;;;9.80;69.20;;;;;;5114463;28;20019;-72
2021/10/19 02:07:55;;;;;;;2.88;2.17;;;9.90;69.10;;;;;;5114483;28;20034;-72
2021/10/19 02:10:21;;;;;;;3.20;2.47;;;10.00;68.90;;;;;;5114512;28;20027;-72
2021/10/19 02:12:47;;;;;;;3.13;2.10;;;10.10;68.90;;;;;;5114407;28;20027;-72
2021/10/19 02:15:12;;;;;;;4.22;2.83;;;10.20;69.00;;;;;;5114465;28;20115;-72
2021/10/19 02:17:38;;;;;;;3.80;2.53;;;10.20;69.00;;;;;;5114438;28;20063;-73
2021/10/19 02:20:06;;;;;;;3.97;2.78;;;10.20;69.20;;;;;;5112941;28;20353;-73
2021/10/19 02:22:32;;;;;;;3.83;2.58;;;10.20;69.40;;;;;;5114396;28;20055;-72
2021/10/19 02:24:58;;;;;;;4.75;2.20;;;10.20;69.30;;;;;;5114265;28;20070;-72
2021/10/19 02:27:25;;;;;;;3.75;2.60;;;10.30;69.40;;;;;;5114218;28;20375;-73
2021/10/19 02:29:50;;;;;;;6.53;2.65;;;10.30;69.70;;;;;;5114159;28;20406;-73
2021/10/19 02:32:16;;;;;;;3.97;2.60;;;10.30;69.80;;;;;;5113972;28;20044;-73
2021/10/19 02:34:42;;;;;;;3.50;2.85;;;10.30;70.00;;;;;;5113986;28;20023;-73
2021/10/19 02:37:07;;;;;;;4.82;2.58;;;10.30;69.80;;;;;;5114065;28;20023;-73
2021/10/19 02:39:33;;;;;;;7.70;2.60;;;10.30;69.80;;;;;;5113854;28;20031;-73
2021/10/19 02:41:58;;;;;;;4.97;2.65;;;10.30;69.70;;;;;;5113811;28;20046;-72
2021/10/19 02:44:24;;;;;;;7.60;2.58;;;10.40;69.40;;;;;;5113811;28;20034;-74
2021/10/19 02:46:50;;;;;;;3.35;2.53;;;10.40;68.90;;;;;;5113828;28;20039;-72
2021/10/19 02:49:16;;;;;;;4.82;2.90;;;10.50;68.50;;;;;;5112506;28;20036;-73
2021/10/19 02:51:41;;;;;;;4.07;2.78;;;10.50;68.50;;;;;;5113693;28;20027;-73
2021/10/19 02:54:10;;;;;;;6.25;2.75;;;10.50;68.60;;;;;;5113825;28;20023;-72
2021/10/19 02:56:36;;;;;;;4.63;2.97;;;10.50;68.60;;;;;;5113772;28;20426;-73
2021/10/19 02:59:02;;;;;;;4.75;3.40;;;10.50;68.80;;;;;;5113571;28;20122;-73
2021/10/19 03:01:27;;;;;;;5.28;3.00;;;10.50;69.00;;;;;;5113684;28;20480;-74
2021/10/19 03:03:53;;;;;;;7.60;3.47;;;10.50;69.10;;;;;;5113441;28;20488;-73
2021/10/19 03:06:19;;;;;;;5.93;3.00;;;10.50;69.00;;;;;;5113047;28;20063;-73
2021/10/19 03:08:44;;;;;;;4.35;3.13;;;10.50;69.20;;;;;;5113458;28;20027;-74
2021/10/19 03:11:10;;;;;;;4.65;3.25;;;10.40;69.10;;;;;;5113342;28;20433;-73
2021/10/19 03:13:36;;;;;;;4.95;3.67;;;10.40;69.00;;;;;;5112064;28;20102;-74
2021/10/19 03:16:02;;;;;;;4.63;3.15;;;10.50;69.40;;;;;;5113137;28;20020;-73
2021/10/19 03:18:27;;;;;;;5.13;3.22;;;10.50;69.70;;;;;;5113355;28;20056;-74
2021/10/19 03:20:54;;;;;;;4.55;3.20;;;10.50;69.80;;;;;;5113169;28;20080;-73
2021/10/19 03:23:20;;;;;;;6.65;3.50;;;10.60;69.90;;;;;;5113312;28;20027;-73
2021/10/19 03:25:45;;;;;;;5.55;3.75;;;10.50;69.70;;;;;;5113277;28;20028;-73
2021/10/19 03:28:11;;;;;;;9.45;5.63;;;10.50;70.00;;;;;;5113137;28;20059;-73
2021/10/19 03:30:36;;;;;;;5.22;4.18;;;10.40;70.30;;;;;;5112931;28;20028;-73
2021/10/19 03:33:03;;;;;;;8.25;3.63;;;10.40;70.00;;;;;;5113143;28;20035;-74
2021/10/19 03:35:29;;;;;;;5.25;3.60;;;10.40;69.80;;;;;;5113104;28;20047;-74
2021/10/19 03:37:55;;;;;;;8.27;4.90;;;10.40;70.30;;;;;;5113027;28;20015;-73
2021/10/19 03:40:20;;;;;;;11.43;5.32;;;10.40;70.60;;;;;;5112926;28;20019;-74
2021/10/19 03:42:48;;;;;;;7.28;4.30;;;10.40;70.60;;;;;;5112823;28;20024;-73
2021/10/19 03:45:17;;;;;;;7.38;3.80;;;10.40;70.70;;;;;;5112821;28;20357;-73
2021/10/19 03:47:43;;;;;;;5.88;3.50;;;10.30;70.70;;;;;;5112684;28;20122;-74
2021/10/19 03:50:12;;;;;;;6.38;3.33;;;10.30;70.70;;;;;;5112834;28;20015;-73
2021/10/19 03:52:38;;;;;;;6.55;3.90;;;10.30;70.30;;;;;;5112631;28;20020;-73
2021/10/19 03:55:05;;;;;;;6.82;3.42;;;10.30;70.60;;;;;;5112935;28;20024;-74
2021/10/19 03:57:31;;;;;;;6.88;3.70;;;10.40;70.40;;;;;;5112699;28;20043;-73
2021/10/19 03:59:56;;;;;;;8.27;3.75;;;10.40;70.10;;;;;;5112762;28;20117;-73
2021/10/19 04:02:22;;;;;;;6.88;4.10;;;10.40;69.70;;;;;;5112824;28;20032;-73
2021/10/19 04:04:48;;;;;;;6.57;4.03;;;10.50;69.80;;;;;;5112974;28;20024;-74
2021/10/19 04:07:14;;;;;;;7.70;4.03;;;10.40;70.10;;;;;;5114279;28;20035;-75
2021/10/19 04:09:40;;;;;;;8.15;3.42;;;10.50;70.50;;;;;;5113273;28;20462;-73
2021/10/19 04:12:06;;;;;;;7.68;3.20;;;10.40;70.40;;;;;;5112630;28;20031;-74
2021/10/19 04:14:33;;;;;;;4.55;3.40;;;10.50;70.50;;;;;;5112536;28;20030;-73
2021/10/19 04:16:58;;;;;;;6.10;2.90;;;10.50;70.40;;;;;;5115438;28;20408;-74
2021/10/19 04:19:24;;;;;;;7.45;3.40;;;10.60;70.20;;;;;;5116677;28;20019;-73
2021/10/19 04:21:50;;;;;;;4.93;3.38;;;10.60;70.40;;;;;;5116311;28;20119;-74
2021/10/19 04:24:16;;;;;;;7.35;3.60;;;10.60;70.20;;;;;;5114962;28;20020;-74
2021/10/19 04:26:43;;;;;;;7.88;3.67;;;10.60;70.40;;;;;;5116445;28;20038;-74
2021/10/19 04:29:09;;;;;;;5.18;2.90;;;10.60;70.40;;;;;;5116423;28;20102;-73
2021/10/19 04:31:37;;;;;;;4.07;2.80;;;10.60;70.30;;;;;;5116285;28;20058;-74
2021/10/19 04:34:03;;;;;;;4.07;2.92;;;10.70;70.30;;;;;;5116322;28;20394;-73
2021/10/19 04:36:29;;;;;;;4.40;3.15;;;10.70;70.10;;;;;;5116252;28;20016;-74
2021/10/19 04:38:54;;;;;;;4.10;3.13;;;10.70;70.00;;;;;;5116335;28;20026;-74
2021/10/19 04:41:20;;;;;;;6.25;3.17;;;10.80;69.70;;;;;;5116217;28;20034;-72
2021/10/19 04:43:46;;;;;;;5.38;3.10;;;10.80;69.70;;;;;;5116217;28;20039;-72
2021/10/19 04:46:11;;;;;;;5.80;3.65;;;10.80;69.60;;;;;;5116140;28;20479;-72
2021/10/19 04:48:37;;;;;;;5.38;3.17;;;10.80;69.50;;;;;;5116192;28;20601;-72
2021/10/19 04:51:03;;;;;;;4.70;3.28;;;10.80;69.90;;;;;;5114659;28;20172;-72
2021/10/19 04:53:30;;;;;;;6.03;3.40;;;10.80;70.00;;;;;;5116021;28;20031;-73
2021/10/19 04:55:56;;;;;;;9.35;3.55;;;10.80;69.90;;;;;;5115900;28;20389;-72
2021/10/19 04:58:21;;;;;;;7.47;3.40;;;10.80;69.70;;;;;;5115877;28;20103;-72
2021/10/19 05:00:47;;;;;;;6.63;3.53;;;10.80;70.00;;;;;;5115913;28;20413;-72
2021/10/19 05:03:16;;;;;;;5.47;3.50;;;10.70;70.10;;;;;;5115937;28;20024;-72
2021/10/19 05:05:42;;;;;;;6.13;3.42;;;10.80;70.30;;;;;;5114277;28;20166;-73
2021/10/19 05:08:08;;;;;;;7.38;3.70;;;10.80;70.00;;;;;;5115672;28;20036;-73
2021/10/19 05:10:33;;;;;;;7.38;3.78;;;10.80;70.50;;;;;;5115549;28;20460;-73
2021/10/19 05:12:59;;;;;;;9.23;4.07;;;10.80;70.50;;;;;;5118685;28;20024;-73
2021/10/19 05:15:26;;;;;;;7.22;3.88;;;10.80;70.60;;;;;;5115409;28;20458;-73
2021/10/19 05:17:52;;;;;;;7.78;3.58;;;10.80;70.50;;;;;;5115240;28;20069;-74
2021/10/19 05:20:18;;;;;;;8.40;4.38;;;10.80;70.70;;;;;;5115249;28;20020;-73
2021/10/19 05:22:44;;;;;;;13.63;4.68;;;10.80;70.50;;;;;;5115196;28;20039;-74
2021/10/19 05:25:11;;;;;;;7.07;4.18;;;10.90;70.60;;;;;;5115129;28;20023;-74
2021/10/19 05:27:37;;;;;;;13.18;4.30;;;10.80;70.80;;;;;;5113950;28;20064;-73
2021/10/19 05:30:04;;;;;;;14.88;4.25;;;10.90;71.00;;;;;;5114628;28;20059;-74
2021/10/19 05:32:29;;;;;;;8.70;4.13;;;10.90;71.20;;;;;;5114451;28;20052;-74
2021/10/19 05:34:55;;;;;;;7.50;3.22;;;10.90;71.30;;;;;;5114773;28;20447;-75
2021/10/19 05:37:20;;;;;;;7.63;3.13;;;10.90;71.50;;;;;;5114649;28;20072;-75
2021/10/19 05:39:46;;;;;;;8.48;3.92;;;11.00;71.80;;;;;;5114851;28;20019;-74
2021/10/19 05:42:13;;;;;;;6.15;3.65;;;11.00;71.90;;;;;;5114962;28;20026;-74
2021/10/19 05:44:40;;;;;;;10.85;4.45;;;10.90;72.00;;;;;;5114889;28;20028;-74
2021/10/19 05:47:06;;;;;;;9.38;4.07;;;11.00;72.50;;;;;;5114584;28;20109;-75
2021/10/19 05:49:32;;;;;;;7.30;4.10;;;10.90;72.70;;;;;;5114812;28;20043;-74
2021/10/19 05:51:57;;;;;;;7.00;3.63;;;10.90;72.50;;;;;;5114527;28;20096;-74
2021/10/19 05:54:23;;;;;;;8.07;3.88;;;10.90;72.20;;;;;;5114498;28;20026;-74
2021/10/19 05:56:53;;;;;;;7.10;3.85;;;10.90;72.80;;;;;;5114526;28;20069;-75
2021/10/19 05:59:19;;;;;;;7.80;4.20;;;10.90;73.50;;;;;;5112893;28;20083;-74
2021/10/19 06:01:45;;;;;;;6.95;4.32;;;10.90;74.20;;;;;;5114317;28;20028;-74
2021/10/19 06:04:11;;;;;;;10.38;4.10;;;10.90;75.20;;;;;;5114395;28;20024;-74
2021/10/19 06:06:36;;;;;;;9.02;4.03;;;10.80;75.80;;;;;;5114315;28;20020;-75
2021/10/19 06:09:03;;;;;;;6.65;4.60;;;10.80;75.90;;;;;;5114147;28;20043;-75
2021/10/19 06:11:29;;;;;;;8.93;4.38;;;10.70;76.00;;;;;;5114092;28;20493;-74
2021/10/19 06:13:54;;;;;;;8.45;3.78;;;10.70;76.90;;;;;;5113976;28;20039;-74
2021/10/19 06:16:20;;;;;;;8.75;3.88;;;10.70;77.70;;;;;;5114213;28;20012;-75
2021/10/19 06:18:46;;;;;;;8.23;4.30;;;10.70;77.60;;;;;;5113902;28;20035;-75
2021/10/19 06:21:11;;;;;;;6.97;4.05;;;10.70;78.90;;;;;;5113950;28;20016;-74
2021/10/19 06:23:37;;;;;;;8.90;4.80;;;10.70;78.40;;;;;;5114086;28;20030;-75
2021/10/19 06:26:03;;;;;;;10.38;4.45;;;10.70;78.50;;;;;;5114109;28;20368;-75
2021/10/19 06:28:29;;;;;;;10.70;4.80;;;10.70;78.20;;;;;;5113975;28;20046;-74
2021/10/19 06:30:55;;;;;;;9.68;5.00;;;10.80;78.40;;;;;;5113762;28;20031;-75
2021/10/19 06:33:21;;;;;;;11.45;5.75;;;10.70;79.30;;;;;;5113954;28;20055;-78
2021/10/19 06:35:46;;;;;;;10.75;5.78;;;10.80;79.70;;;;;;5112554;28;20027;-75
2021/10/19 06:38:12;;;;;;;13.15;6.03;;;10.80;79.60;;;;;;5113091;28;20448;-75
2021/10/19 06:40:38;;;;;;;9.10;5.43;;;10.80;79.00;;;;;;5111751;28;20023;-75
2021/10/19 06:43:05;;;;;;;16.00;6.13;;;10.80;79.10;;;;;;5113299;28;20099;-74
2021/10/19 06:45:31;;;;;;;13.60;6.13;;;10.70;79.70;;;;;;5113787;27;20045;-74
2021/10/19 06:47:57;;;;;;;12.27;5.78;;;10.70;80.10;;;;;;5113734;28;20110;-74
2021/10/19 06:50:23;;;;;;;13.25;6.50;;;10.80;80.30;;;;;;5113596;28;20036;-76
2021/10/19 06:52:48;;;;;;;13.98;6.38;;;10.80;80.70;;;;;;5113504;28;20035;-74
2021/10/19 06:55:14;;;;;;;9.63;5.70;;;10.90;80.60;;;;;;5113403;28;20020;-74
2021/10/19 06:57:44;;;;;;;9.25;5.47;;;11.00;80.70;;;;;;5113045;28;20028;-74
2021/10/19 07:00:15;;;;;;;8.90;5.32;;;11.00;80.60;;;;;;5113103;28;20049;-74
2021/10/19 07:02:41;;;;;;;12.48;5.82;;;11.10;80.50;;;;;;5113390;28;20080;-74
2021/10/19 07:05:07;;;;;;;8.15;4.82;;;11.00;80.50;;;;;;5113200;28;20146;-74
2021/10/19 07:07:33;;;;;;;12.73;5.63;;;11.10;80.80;;;;;;5113056;28;20032;-74
2021/10/19 07:10:00;;;;;;;10.63;4.68;;;11.10;80.60;;;;;;5112940;28;20103;-74
2021/10/19 07:12:27;;;;;;;7.28;4.93;;;11.00;80.20;;;;;;5113347;28;20024;-74
2021/10/19 07:14:52;;;;;;;12.20;5.35;;;11.00;80.20;;;;;;5112861;28;20463;-74
2021/10/19 07:17:18;;;;;;;7.40;4.80;;;11.10;79.80;;;;;;5112999;28;20057;-74
2021/10/19 07:19:46;;;;;;;8.48;4.57;;;11.00;79.50;;;;;;5112744;28;20374;-74
2021/10/19 07:22:12;;;;;;;7.75;4.82;;;11.10;79.50;;;;;;5112724;28;20031;-76
2021/10/19 07:24:37;;;;;;;8.65;5.07;;;11.10;79.90;;;;;;5112786;28;20456;-74
2021/10/19 07:27:03;;;;;;;9.10;4.70;;;11.10;79.90;;;;;;5112789;28;20141;-74
2021/10/19 07:29:28;;;;;;;8.85;4.80;;;11.20;79.40;;;;;;5112749;28;20099;-74
2021/10/19 07:31:54;;;;;;;7.70;4.35;;;11.30;78.00;;;;;;5112362;28;20111;-73
2021/10/19 07:34:20;;;;;;;7.38;3.97;;;11.30;77.00;;;;;;5112415;28;20023;-75
2021/10/19 07:36:45;;;;;;;7.72;4.38;;;11.40;77.60;;;;;;5110916;28;20107;-74
2021/10/19 07:39:11;;;;;;;7.15;4.05;;;11.50;78.10;;;;;;5112751;28;20016;-74
2021/10/19 07:41:37;;;;;;;8.40;4.57;;;11.50;77.80;;;;;;5112687;28;20031;-73
2021/10/19 07:44:09;;;;;;;10.65;6.60;;;11.60;77.80;;;;;;5111054;28;20019;-74
2021/10/19 07:46:35;;;;;;;7.65;4.30;;;11.60;77.90;;;;;;5112355;28;20482;-74
2021/10/19 07:49:01;;;;;;;8.25;3.85;;;11.60;77.30;;;;;;5110942;28;20118;-74
2021/10/19 07:51:27;;;;;;;5.65;3.58;;;11.70;76.00;;;;;;5112196;28;20023;-74
2021/10/19 07:53:53;;;;;;;5.07;3.58;;;11.70;75.20;;;;;;5112295;28;20072;-74
2021/10/19 07:56:20;;;;;;;6.72;4.00;;;11.80;75.40;;;;;;5112585;28;20020;-74
2021/10/19 07:58:47;;;;;;;7.85;4.07;;;11.90;76.00;;;;;;5112011;28;20020;-73
2021/10/19 08:01:13;;;;;;;5.95;3.80;;;12.00;75.90;;;;;;5111205;28;20424;-74
2021/10/19 08:03:39;;;;;;;5.82;3.58;;;12.10;75.50;;;;;;5112249;28;20050;-73
2021/10/19 08:06:05;;;;;;;8.23;4.38;;;12.10;75.60;;;;;;5112183;28;20052;-74
2021/10/19 08:08:30;;;;;;;11.68;7.03;;;12.10;75.10;;;;;;5112082;28;20032;-73
2021/10/19 08:10:56;;;;;;;15.60;7.30;;;12.20;75.90;;;;;;5112484;28;20476;-75
2021/10/19 08:13:21;;;;;;;13.77;7.55;;;12.20;75.90;;;;;;5112368;28;20103;-74
2021/10/19 08:15:47;;;;;;;8.45;5.80;;;12.20;75.90;;;;;;5112153;28;20020;-73
2021/10/19 08:18:13;;;;;;;12.45;6.97;;;12.20;75.90;;;;;;5111933;28;20059;-73
2021/10/19 08:20:39;;;;;;;10.57;5.72;;;12.20;76.30;;;;;;5112187;28;20470;-77
2021/10/19 08:23:06;;;;;;;12.73;5.55;;;12.20;76.90;;;;;;5112623;28;20123;-79
2021/10/19 08:25:32;;;;;;;11.43;6.18;;;12.40;81.40;;;;;;5113034;28;20110;-83
2021/10/19 08:27:58;;;;;;;9.75;4.65;;;12.60;80.40;;;;;;5113234;28;20032;-79
2021/10/19 08:30:24;;;;;;;11.05;5.88;;;12.80;80.40;;;;;;5112793;28;20024;-84
2021/10/19 08:32:50;;;;;;;14.07;6.00;;;13.10;77.50;;;;;;5114281;28;20043;-80
2021/10/19 08:35:18;;;;;;;10.45;5.88;;;13.30;75.90;;;;;;5113657;28;20031;-83
2021/10/19 08:37:44;;;;;;;11.98;5.88;;;13.50;75.40;;;;;;5112728;28;20521;-84
2021/10/19 08:40:11;;;;;;;10.00;5.80;;;13.70;74.40;;;;;;5112423;28;20375;-80
2021/10/19 08:42:42;;;;;;;9.98;4.88;;;13.90;73.20;;;;;;5112428;28;20024;-82
2021/10/19 08:45:09;;;;;;;6.53;4.10;;;14.10;70.60;;;;;;5112417;28;20020;-84
2021/10/19 08:47:35;;;;;;;6.15;4.03;;;14.10;68.80;;;;;;5110766;28;20029;-83
2021/10/19 08:50:03;;;;;;;6.63;3.63;;;14.10;68.30;;;;;;5111881;28;20019;-82
2021/10/19 08:52:29;;;;;;;4.13;2.70;;;14.20;68.80;;;;;;5111685;28;20020;-81
2021/10/19 08:54:54;;;;;;;4.30;2.85;;;14.10;66.80;;;;;;5112176;28;20028;-83
2021/10/19 08:57:20;;;;;;;9.63;3.50;;;14.20;66.60;;;;;;5112250;28;20020;-84
2021/10/19 08:59:48;;;;;;;5.80;3.20;;;14.20;66.20;;;;;;5112240;28;20024;-83
2021/10/19 09:02:14;;;;;;;8.25;3.35;;;14.20;67.50;;;;;;5112332;28;20463;-84
2021/10/19 09:04:42;;;;;;;7.05;3.15;;;14.30;67.40;;;;;;5115730;28;20031;-84
2021/10/19 09:07:08;;;;;;;10.43;5.70;;;14.30;68.30;;;;;;5115847;28;20116;-83
2021/10/19 09:09:35;;;;;;;15.13;8.25;;;14.40;68.50;;;;;;5115623;28;20016;-83
2021/10/19 09:12:02;;;;;;;13.10;8.18;;;14.50;69.60;;;;;;5115638;28;20084;-83
2021/10/19 09:14:33;;;;;;;15.88;7.43;;;14.40;70.40;;;;;;5115877;28;20095;-84
2021/10/19 09:17:00;;;;;;;11.05;5.85;;;14.50;71.40;;;;;;5115711;28;20039;-76
2021/10/19 09:19:27;;;;;;;9.38;5.20;;;14.60;71.20;;;;;;5115285;28;20114;-75
2021/10/19 09:21:55;;;;;;;6.28;4.45;;;14.50;71.40;;;;;;5114757;28;20034;-76
2021/10/19 09:24:29;;;;;;;8.25;4.63;;;14.40;71.60;;;;;;5115155;28;20027;-76
2021/10/19 09:27:05;;;;;;;9.75;4.63;;;14.20;72.80;;;;;;5114850;28;20024;-76
2021/10/19 09:29:36;;;;;;;8.48;4.13;;;14.00;73.50;;;;;;5114919;28;20028;-75
2021/10/19 09:32:05;;;;;;;5.75;3.80;;;13.90;74.30;;;;;;5114775;28;20067;-76
2021/10/19 09:34:33;;;;;;;6.07;3.00;;;13.70;74.60;;;;;;5114915;28;20031;-74
2021/10/19 09:37:10;;;;;;;8.98;3.63;;;13.60;73.60;;;;;;5114458;28;20582;-74
2021/10/19 09:39:40;;;;;;;6.47;3.75;;;13.60;74.10;;;;;;5114279;28;20024;-74
2021/10/19 09:42:28;;;;;;;5.97;3.42;;;13.50;74.70;;;;;;5114211;27;20016;-74
2021/10/19 09:45:00;;;;;;;6.32;2.83;;;13.30;74.70;;;;;;5093554;28;20457;-74
2021/10/19 09:47:29;;;;;;;5.22;2.97;;;13.30;75.60;;;;;;5093909;28;20380;-75
2021/10/19 09:49:56;;;;;;;4.15;2.75;;;13.30;75.30;;;;;;5094041;28;20102;-74
2021/10/19 09:52:22;;;;;;;5.10;3.03;;;13.30;75.40;;;;;;5094111;28;20472;-74
2021/10/19 09:54:52;;;;;;;5.50;3.30;;;13.30;74.80;;;;;;5094025;28;20531;-75
2021/10/19 09:57:19;;;;;;;3.08;2.38;;;13.30;74.60;;;;;;5093850;28;20024;-75
2021/10/19 09:59:45;;;;;;;4.28;2.83;;;13.30;74.10;;;;;;5094008;28;20085;-76
2021/10/19 10:02:14;;;;;;;4.50;3.17;;;13.30;73.80;;;;;;5093375;28;20176;-74
2021/10/19 10:04:41;;;;;;;5.93;2.72;;;13.40;74.40;;;;;;5093124;28;20036;-75
2021/10/19 10:07:10;;;;;;;5.97;3.17;;;13.30;74.00;;;;;;5093615;28;20036;-75
2021/10/19 10:09:37;;;;;;;4.03;2.60;;;13.30;74.20;;;;;;5093548;28;20054;-75
2021/10/19 10:12:06;;;;;;;3.78;2.60;;;13.40;73.70;;;;;;5093548;28;20052;-74
2021/10/19 10:14:45;;;;;;;6.47;3.15;;;13.40;73.00;;;;;;5093242;28;20035;-74
2021/10/19 10:17:12;;;;;;;4.35;2.60;;;13.50;71.00;;;;;;5093720;28;20028;-75
2021/10/19 10:19:38;;;;;;;4.70;2.78;;;13.50;70.70;;;;;;5108720;28;20035;-73
2021/10/19 10:22:22;;;;;;;5.28;2.85;;;13.60;69.30;;;;;;5092978;28;20077;-74
2021/10/19 10:24:48;;;;;;;5.40;3.00;;;13.70;68.40;;;;;;5093207;28;20443;-74
2021/10/19 10:27:25;;;;;;;4.60;2.85;;;13.80;69.00;;;;;;5093142;28;20032;-74
2021/10/19 10:29:51;;;;;;;3.40;2.28;;;13.90;69.10;;;;;;5093236;28;20027;-74
2021/10/19 10:32:27;;;;;;;4.07;2.30;;;14.00;68.60;;;;;;5093056;28;20461;-75
2021/10/19 10:35:12;;;;;;;2.70;2.20;;;14.00;68.70;;;;;;5093328;28;20051;-74
2021/10/19 10:37:44;;;;;;;3.67;2.65;;;14.00;67.10;;;;;;5093126;28;20032;-74
2021/10/19 10:40:34;;;;;;;4.07;2.15;;;14.10;67.10;;;;;;5093232;28;20038;-75
2021/10/19 10:43:15;;;;;;;4.53;2.58;;;14.10;66.70;;;;;;5084923;28;20035;-74
2021/10/19 10:45:41;;;;;;;3.80;2.70;;;14.20;66.70;;;;;;5092722;28;20036;-77
2021/10/19 10:48:06;;;;;;;3.90;2.67;;;14.30;66.00;;;;;;5092721;28;20122;-76
2021/10/19 10:50:37;;;;;;;4.97;2.58;;;14.30;64.80;;;;;;5092402;28;20024;-75
2021/10/19 10:53:08;;;;;;;4.50;3.28;;;14.40;64.10;;;;;;5091839;28;20023;-75
2021/10/19 10:55:39;;;;;;;3.40;2.47;;;14.40;63.10;;;;;;5092320;28;20020;-75
2021/10/19 10:58:06;;;;;;;4.47;3.05;;;14.50;62.80;;;;;;5092561;28;20439;-75
2021/10/19 11:00:49;;;;;;;4.45;3.20;;;14.60;62.80;;;;;;5092471;28;20158;-74
2021/10/19 11:03:16;;;;;;;4.85;3.28;;;14.60;63.50;;;;;;5108239;28;20085;-74
2021/10/19 11:05:57;;;;;;;4.68;2.75;;;14.70;63.90;;;;;;5092683;28;20128;-74
2021/10/19 11:08:29;;;;;;;5.90;2.58;;;14.70;63.60;;;;;;5092974;28;20388;-75
2021/10/19 11:11:13;;;;;;;4.40;2.80;;;14.70;62.70;;;;;;5092290;28;20024;-76
2021/10/19 11:14:00;;;;;;;5.32;2.75;;;14.80;62.40;;;;;;5098502;28;20077;-74
2021/10/19 11:16:30;;;;;;;4.63;2.67;;;14.80;62.20;;;;;;5091888;28;20035;-74
2021/10/19 11:18:56;;;;;;;5.80;3.20;;;14.80;62.40;;;;;;5092043;28;20020;-73
2021/10/19 11:21:22;;;;;;;3.83;2.53;;;14.80;61.80;;;;;;5091946;28;20031;-75
2021/10/19 11:23:48;;;;;;;4.75;2.63;;;14.90;61.40;;;;;;5091662;28;20384;-76
2021/10/19 11:26:14;;;;;;;4.88;2.95;;;14.90;62.10;;;;;;5091176;28;20380;-76
2021/10/19 11:28:43;;;;;;;3.38;2.67;;;14.90;62.10;;;;;;5091819;28;20032;-73
2021/10/19 11:31:13;;;;;;;5.30;2.80;;;14.90;61.60;;;;;;5091509;28;20618;-75
2021/10/19 11:33:41;;;;;;;4.22;2.95;;;15.00;61.10;;;;;;5092126;28;20038;-75
2021/10/19 11:36:07;;;;;;;5.18;3.20;;;15.00;60.90;;;;;;5091872;28;20185;-76
2021/10/19 11:38:40;;;;;;;4.75;2.88;;;15.10;60.70;;;;;;5091930;28;20480;-75
2021/10/19 11:41:10;;;;;;;4.10;2.53;;;15.20;61.00;;;;;;5091579;28;20050;-78
2021/10/19 11:43:39;;;;;;;5.00;3.30;;;15.30;59.90;;;;;;5091880;28;20016;-74
2021/10/19 11:46:07;;;;;;;5.55;3.17;;;15.30;60.20;;;;;;5091649;28;20024;-75
2021/10/19 11:48:34;;;;;;;6.30;3.33;;;15.40;59.80;;;;;;5091616;28;20032;-74
2021/10/19 11:51:01;;;;;;;5.20;2.97;;;15.40;59.20;;;;;;5091848;28;20016;-74
2021/10/19 11:53:29;;;;;;;4.97;2.65;;;15.60;59.70;;;;;;5091990;28;20028;-74
2021/10/19 11:55:55;;;;;;;9.20;2.85;;;15.70;59.00;;;;;;5091695;28;20026;-74
2021/10/19 11:58:23;;;;;;;10.02;3.20;;;15.80;58.90;;;;;;5092076;28;20067;-75
2021/10/19 12:00:52;;;;;;;5.00;2.50;;;15.80;58.70;;;;;;5092043;28;20039;-74
2021/10/19 12:03:18;;;;;;;4.57;3.20;;;15.90;58.60;;;;;;5092171;28;20024;-74
2021/10/19 12:05:44;;;;;;;5.93;2.95;;;16.00;58.70;;;;;;5092078;28;20035;-74
2021/10/19 12:08:10;;;;;;;5.55;3.50;;;16.10;58.40;;;;;;5091693;28;20088;-75
2021/10/19 12:10:36;;;;;;;6.20;2.88;;;16.20;57.50;;;;;;5091810;28;20040;-75
2021/10/19 12:13:10;;;;;;;6.03;2.80;;;16.20;56.70;;;;;;5091845;28;20020;-73
2021/10/19 12:15:36;;;;;;;3.55;2.35;;;16.20;56.60;;;;;;5092075;28;20024;-75
2021/10/19 12:18:37;;;;;;;5.13;2.80;;;16.20;56.70;;;;;;5091710;28;20020;-74
2021/10/19 12:21:03;;;;;;;3.10;2.50;;;16.30;56.70;;;;;;5099747;28;20047;-77
2021/10/19 12:23:29;;;;;;;3.90;2.78;;;16.40;56.00;;;;;;5112159;28;20035;-75
2021/10/19 12:25:55;;;;;;;5.05;2.88;;;16.40;55.70;;;;;;5111743;28;20485;-72
2021/10/19 12:28:23;;;;;;;3.63;2.72;;;16.40;55.50;;;;;;5111801;28;20043;-72
2021/10/19 12:30:48;;;;;;;9.48;4.88;;;16.40;55.30;;;;;;5111411;28;20012;-73
2021/10/19 12:33:19;;;;;;;7.63;4.40;;;16.50;55.30;;;;;;5110432;28;20035;-72
2021/10/19 12:35:50;;;;;;;6.68;4.20;;;16.60;55.30;;;;;;5111637;28;20110;-73
2021/10/19 12:38:16;;;;;;;6.97;4.30;;;16.60;55.40;;;;;;5115076;28;20028;-72
2021/10/19 12:40:47;;;;;;;7.63;4.85;;;16.70;56.20;;;;;;5115777;28;20030;-73
2021/10/19 12:43:13;;;;;;;7.22;4.50;;;16.70;57.00;;;;;;5115817;28;20045;-72
2021/10/19 12:45:39;;;;;;;8.70;5.13;;;16.70;57.70;;;;;;5115671;28;20015;-74
2021/10/19 12:48:08;;;;;;;7.53;4.45;;;16.70;58.40;;;;;;5115463;28;20104;-74